Terminal Aerodrome Forecast
Issued by NWS

Home | Current Version | Previous Version | Text Only | Print | Product List | Glossary Off
Versions: 1 2 3 4 5 6 7 8 9 10 11 12 13 14 15 16 17 18 19 20

000
FTUS43 KPAH 261729
TAFCGI
TAF
KCGI 261729Z 2618/2718 36015KT 6SM -RA BKN015 OVC025
     FM262100 36010KT P6SM SCT025 BKN250
     FM270900 36005KT P6SM BKN050 OVC100=

USA.gov is the U.S. government's official web portal to all federal, state and local government web resources and services.